This is the latest recevied weather packets stored in our database for station/object KE0PRS. If no packets are shown the sender has not sent any weather packets the latest 10 day(s).
| Time | Temp. | Humidity | Pressure | Rain* | Wind** | Luminosity | Snow |
|---|---|---|---|---|---|---|---|
| 1777945270 | 20.56° C | 47% | 1001.8 hPa | 0 mm | - | 1 W/m² | - |
| 1777944967 | 21.11° C | 46% | 1001.7 hPa | 0 mm | - | 1 W/m² | - |
| 1777944664 | 21.67° C | 46% | 1001.6 hPa | 0 mm | - | 2 W/m² | - |
| 1777944362 | 21.67° C | 46% | 1001.5 hPa | 0 mm | - | 3 W/m² | - |
| 1777944059 | 22.22° C | 45% | 1002 hPa | 0 mm | - | 6 W/m² | - |
| 1777943754 | 22.22° C | 45% | 1001.8 hPa | 0 mm | - | 11 W/m² | - |
| 1777943452 | 22.78° C | 45% | 1001.7 hPa | 0 mm | - | 11 W/m² | - |
| 1777943147 | 22.78° C | 44% | 1001.6 hPa | 0 mm | - | 15 W/m² | - |
| 1777942844 | 22.78° C | 44% | 1001.8 hPa | 0 mm | - | 16 W/m² | - |
| 1777942540 | 22.78° C | 43% | 1001.4 hPa | 0 mm | - | 25 W/m² | - |
| 1777942238 | 23.33° C | 43% | 1001.6 hPa | 0 mm | - | 30 W/m² | - |
| 1777941935 | 23.89° C | 41% | 1001.7 hPa | 0 mm | - | 31 W/m² | - |
| 1777941632 | 23.89° C | 41% | 1001.9 hPa | 0 mm | - | 31 W/m² | - |
| 1777941329 | 23.89° C | 39% | 1002 hPa | 0 mm | - | 38 W/m² | - |
| 1777941026 | 24.44° C | 38% | 1001.9 hPa | 0 mm | - | 47 W/m² | - |
| 1777940721 | 24.44° C | 38% | 1002.2 hPa | 0 mm | - | 52 W/m² | - |
| 1777940420 | 25.56° C | 35% | 1002 hPa | 0 mm | - | 64 W/m² | - |
| 1777940117 | 26.67° C | 31% | 1001.9 hPa | 0 mm | - | 60 W/m² | - |
| 1777939814 | 27.22° C | 28% | 1001.8 hPa | 0 mm | - | 42 W/m² | - |
| 1777939511 | 27.78° C | 27% | 1001.8 hPa | 0 mm | - | 43 W/m² | - |
| 1777939209 | 27.78° C | 25% | 1001.7 hPa | 0 mm | - | 47 W/m² | - |
| 1777938906 | 27.22° C | 26% | 1001.6 hPa | 0 mm | - | 68 W/m² | - |
| 1777938602 | 27.22° C | 27% | 1001.8 hPa | 0 mm | - | 66 W/m² | - |
| 1777938299 | 26.67° C | 26% | 1001.7 hPa | 0 mm | - | 56 W/m² | - |
| 1777937996 | 26.67° C | 29% | 1001.6 hPa | 0 mm | - | 61 W/m² | - |
* Rain latest hour (hover to see other rain measurements)
** Current wind speed in m/s (hover to see current wind gust speed)